Time;durP1;ratioP1;P1;durP2;ratioP2;P2;SDS_P1;SDS_P2;PMS_P1;PMS_P2;Temp;Humidity;BMP_temperature;BMP_pressure;BME280_temperature;BME280_humidity;BME280_pressure;Samples;Min_cycle;Max_cycle;Signal;HPM_P1;HPM_P2
2021/06/20 13:08:33;;;;;;;3.70;3.10;;;;;;;31.58;33.01;98476.39;125240;1093;64392;-86
2021/06/20 13:11:01;;;;;;;3.30;3.00;;;;;;;31.71;33.15;98485.14;125210;1093;64267;-84
2021/06/20 13:13:28;;;;;;;3.83;3.00;;;;;;;31.78;32.67;98478.61;125258;1093;64207;-85
2021/06/20 13:15:57;;;;;;;2.97;2.77;;;;;;;31.87;31.90;98475.17;125172;1093;64265;-86
2021/06/20 13:18:25;;;;;;;3.60;3.40;;;;;;;31.90;32.26;98480.17;125214;1093;64236;-86
2021/06/20 13:20:53;;;;;;;4.50;4.10;;;;;;;32.00;32.77;98482.28;125025;1093;64181;-86
2021/06/20 13:23:21;;;;;;;3.47;3.27;;;;;;;32.08;32.20;98475.50;125147;1093;64265;-86
2021/06/20 13:25:52;;;;;;;3.10;2.90;;;;;;;32.08;31.68;98478.25;125180;1092;64187;-86
2021/06/20 13:28:20;;;;;;;3.50;2.97;;;;;;;32.09;31.81;98471.64;125239;1093;64287;-86
2021/06/20 13:30:48;;;;;;;3.40;2.77;;;;;;;32.19;31.11;98474.53;125259;1093;64314;-86
2021/06/20 13:33:15;;;;;;;3.20;2.35;;;;;;;32.13;30.79;98468.13;125344;1093;64376;-87
2021/06/20 13:35:42;;;;;;;2.87;2.53;;;;;;;32.09;31.22;98475.22;125242;1093;64287;-86
2021/06/20 13:38:11;;;;;;;2.63;2.47;;;;;;;32.21;32.30;98466.02;125367;1093;64185;-87
2021/06/20 13:40:38;;;;;;;4.43;2.43;;;;;;;32.33;31.34;98467.56;125254;1093;64383;-85
2021/06/20 13:43:06;;;;;;;2.90;2.70;;;;;;;32.35;31.02;98464.52;125310;1093;64307;-85
2021/06/20 13:45:33;;;;;;;2.90;2.60;;;;;;;32.38;31.07;98469.52;125570;1092;64241;-86
2021/06/20 13:48:01;;;;;;;3.13;2.37;;;;;;;32.43;30.99;98471.52;125395;1093;64267;-87
2021/06/20 13:50:28;;;;;;;2.63;2.43;;;;;;;32.44;30.17;98463.00;125211;1093;64702;-87
2021/06/20 13:52:57;;;;;;;3.27;2.77;;;;;;;32.44;29.99;98462.14;125233;1093;64358;-88
2021/06/20 13:55:25;;;;;;;2.67;2.23;;;;;;;32.46;29.52;98457.20;125119;1093;64313;-86
2021/06/20 13:57:52;;;;;;;2.50;2.20;;;;;;;32.42;29.54;98454.14;125143;1093;64191;-86
2021/06/20 14:00:20;;;;;;;3.27;2.50;;;;;;;32.49;30.68;98445.67;125285;1092;64316;-87
2021/06/20 14:02:48;;;;;;;2.80;2.57;;;;;;;32.54;29.44;98451.25;125190;1093;64283;-88
2021/06/20 14:05:16;;;;;;;2.90;2.70;;;;;;;32.42;29.69;98448.63;125319;1093;64320;-88
2021/06/20 14:07:44;;;;;;;3.07;2.40;;;;;;;32.29;29.79;98438.81;125234;1093;64794;-87
2021/06/20 14:10:12;;;;;;;2.70;2.50;;;;;;;32.26;30.29;98442.09;125190;1093;64284;-86
2021/06/20 14:12:40;;;;;;;3.37;2.80;;;;;;;32.35;30.68;98442.46;125179;1093;64364;-86
2021/06/20 14:15:08;;;;;;;2.97;2.73;;;;;;;32.37;30.78;98440.28;125223;1093;64334;-86
2021/06/20 14:17:36;;;;;;;2.90;2.70;;;;;;;32.41;30.68;98430.39;125171;1093;64293;-86
2021/06/20 14:20:05;;;;;;;4.23;2.80;;;;;;;32.43;30.14;98435.66;125176;1093;64194;-87
2021/06/20 14:22:33;;;;;;;;;;;;;;;32.47;29.95;98434.06;125413;1093;64284;-87
2021/06/20 14:25:00;;;;;;;4.80;2.95;;;;;;;32.46;30.44;98426.86;125333;1092;64191;-86
2021/06/20 14:27:27;;;;;;;2.90;2.60;;;;;;;32.55;31.00;98428.11;125242;1092;64265;-87
2021/06/20 14:29:55;;;;;;;3.57;2.77;;;;;;;32.54;29.85;98431.94;125172;1093;64335;-86
2021/06/20 14:32:23;;;;;;;4.50;2.67;;;;;;;32.47;30.24;98423.89;125162;1092;64280;-88
2021/06/20 14:34:52;;;;;;;3.13;2.83;;;;;;;32.45;29.92;98423.27;125054;1093;64223;-87
2021/06/20 14:37:21;;;;;;;;;;;;;;;32.42;29.65;98417.45;125088;1093;64284;-85
2021/06/20 14:39:50;;;;;;;2.30;2.20;;;;;;;32.34;28.74;98425.09;125144;1093;64275;-86
2021/06/20 14:42:17;;;;;;;;;;;;;;;32.29;29.02;98425.03;125189;1093;64127;-85
2021/06/20 14:44:46;;;;;;;2.43;2.00;;;;;;;32.27;29.08;98424.44;125098;1093;64267;-85
2021/06/20 14:47:14;;;;;;;2.85;2.65;;;;;;;32.30;29.54;98415.65;125184;1093;64262;-87
2021/06/20 14:49:42;;;;;;;2.70;2.30;;;;;;;32.36;29.24;98419.30;125047;1093;64322;-89
2021/06/20 14:52:09;;;;;;;3.10;2.67;;;;;;;32.30;29.10;98414.82;125060;1092;64271;-86
2021/06/20 14:54:36;;;;;;;2.33;2.13;;;;;;;32.32;29.38;98413.47;125122;1093;64316;-87
2021/06/20 14:57:05;;;;;;;2.90;2.70;;;;;;;32.38;29.45;98414.36;125033;1092;64275;-86
2021/06/20 14:59:33;;;;;;;2.63;2.43;;;;;;;32.40;29.36;98406.67;125099;1093;64262;-85
2021/06/20 15:02:00;;;;;;;2.70;2.50;;;;;;;32.43;29.76;98414.42;125031;1093;64383;-87
2021/06/20 15:04:27;;;;;;;3.30;3.00;;;;;;;32.43;29.77;98405.31;125099;1093;64214;-87
2021/06/20 15:06:58;;;;;;;4.57;3.03;;;;;;;32.40;30.29;98419.63;125074;1093;65081;-85
2021/06/20 15:09:25;;;;;;;3.17;2.97;;;;;;;32.39;30.67;98409.67;125132;1093;64327;-86
2021/06/20 15:11:53;;;;;;;3.00;2.80;;;;;;;32.41;30.65;98411.08;125139;1093;64272;-86
2021/06/20 15:14:21;;;;;;;3.00;2.80;;;;;;;32.36;29.99;98406.36;125092;1093;64283;-86
2021/06/20 15:16:52;;;;;;;3.40;3.10;;;;;;;32.29;30.51;98396.63;125045;1092;64207;-86
2021/06/20 15:19:19;;;;;;;3.10;2.47;;;;;;;32.27;30.25;98399.63;125080;1092;64364;-86
2021/06/20 15:21:47;;;;;;;3.20;3.00;;;;;;;32.23;30.30;98398.49;125080;1093;64268;-87
2021/06/20 15:24:15;;;;;;;4.33;3.33;;;;;;;32.19;30.56;98391.81;125027;1093;64191;-87
2021/06/20 15:26:43;;;;;;;3.80;3.50;;;;;;;32.17;30.71;98385.72;124996;1093;64178;-86
2021/06/20 15:29:11;;;;;;;3.63;3.33;;;;;;;32.18;30.88;98387.40;124974;1093;64300;-87
2021/06/20 15:31:40;;;;;;;3.20;3.00;;;;;;;32.13;30.68;98373.55;125101;1093;64297;-87
2021/06/20 15:34:08;;;;;;;;;;;;;;;32.02;30.16;98372.61;125135;1093;64211;-87
2021/06/20 15:36:35;;;;;;;5.10;3.45;;;;;;;31.87;30.54;98358.59;125125;1093;64341;-87
2021/06/20 15:39:04;;;;;;;4.07;3.70;;;;;;;31.80;30.91;98364.28;125063;1092;64268;-87
2021/06/20 15:41:33;;;;;;;3.75;3.45;;;;;;;31.81;31.09;98349.44;125241;1093;64288;-85
2021/06/20 15:44:01;;;;;;;2.78;2.68;;;;;;;31.85;31.11;98360.77;125126;1092;64294;-86
2021/06/20 15:46:31;;;;;;;3.17;2.97;;;;;;;31.82;31.23;98364.05;125056;1093;64389;-85
2021/06/20 15:48:59;;;;;;;4.07;3.00;;;;;;;31.79;31.20;98361.80;125172;1092;64217;-85
2021/06/20 15:51:29;;;;;;;3.43;3.13;;;;;;;31.78;31.08;98372.00;125151;1093;64312;-86
2021/06/20 15:53:57;;;;;;;3.70;3.30;;;;;;;31.77;31.18;98370.31;125108;1092;64271;-86
2021/06/20 15:56:26;;;;;;;3.83;3.53;;;;;;;31.76;31.19;98362.33;125059;1091;64268;-88
2021/06/20 15:58:54;;;;;;;3.93;3.63;;;;;;;31.76;31.41;98359.56;125124;1093;64280;-87
2021/06/20 16:01:21;;;;;;;3.50;3.03;;;;;;;31.75;31.35;98355.95;125103;1093;64159;-86
2021/06/20 16:03:50;;;;;;;3.20;3.00;;;;;;;31.73;31.95;98352.64;125121;1093;64287;-87
2021/06/20 16:06:20;;;;;;;3.40;3.10;;;;;;;31.76;31.27;98357.64;125135;1093;64271;-86
2021/06/20 16:08:48;;;;;;;3.80;3.50;;;;;;;31.69;31.70;98365.25;125066;1092;64188;-89
2021/06/20 16:11:16;;;;;;;4.07;3.20;;;;;;;31.64;31.71;98360.50;125042;1093;64387;-86
2021/06/20 16:13:43;;;;;;;4.77;4.20;;;;;;;31.58;31.91;98361.53;125193;1093;64330;-86
2021/06/20 16:16:11;;;;;;;4.40;3.40;;;;;;;31.54;32.18;98371.38;125182;1093;64386;-86
2021/06/20 16:18:38;;;;;;;5.00;3.90;;;;;;;31.55;32.35;98356.53;125141;1093;64280;-86
2021/06/20 16:21:06;;;;;;;6.97;3.67;;;;;;;31.57;32.33;98359.02;125171;1093;64254;-87
2021/06/20 16:23:33;;;;;;;3.50;3.30;;;;;;;31.58;32.63;98356.02;125022;1093;64308;-87
2021/06/20 16:26:00;;;;;;;3.87;3.50;;;;;;;31.59;32.58;98354.92;125127;1093;64409;-87
2021/06/20 16:28:27;;;;;;;3.53;3.30;;;;;;;31.59;32.78;98357.67;125150;1093;64284;-87
2021/06/20 16:30:55;;;;;;;3.80;3.50;;;;;;;31.61;33.07;98366.52;125111;1093;64187;-87
2021/06/20 16:33:23;;;;;;;3.70;3.40;;;;;;;31.65;33.17;98369.59;125205;1093;64295;-88
2021/06/20 16:35:51;;;;;;;5.43;3.60;;;;;;;31.62;32.73;98368.17;125140;1093;64651;-86
2021/06/20 16:38:19;;;;;;;3.60;3.30;;;;;;;31.52;32.85;98375.47;125171;1093;64355;-86
2021/06/20 16:40:46;;;;;;;3.23;3.03;;;;;;;31.45;32.51;98370.98;125167;1092;64242;-87
2021/06/20 16:43:13;;;;;;;4.40;2.97;;;;;;;31.38;32.66;98367.57;125126;1093;64280;-87
2021/06/20 16:45:41;;;;;;;3.53;3.23;;;;;;;31.37;33.03;98367.81;125163;1093;64725;-87
2021/06/20 16:48:08;;;;;;;3.80;3.50;;;;;;;31.43;33.34;98364.89;125154;1093;64287;-87
2021/06/20 16:50:36;;;;;;;3.73;3.20;;;;;;;31.46;33.37;98361.63;125176;1093;64271;-88
2021/06/20 16:53:03;;;;;;;4.67;3.30;;;;;;;31.69;33.35;98359.73;125245;1093;64241;-88
2021/06/20 16:55:31;;;;;;;4.47;3.07;;;;;;;32.15;33.08;98360.35;125184;1093;64251;-87
2021/06/20 16:57:58;;;;;;;3.13;2.93;;;;;;;32.50;33.13;98353.57;125272;1093;64241;-87
2021/06/20 17:00:25;;;;;;;3.80;3.53;;;;;;;32.82;33.03;98358.28;125353;1093;64388;-86
2021/06/20 17:02:52;;;;;;;3.50;3.20;;;;;;;33.00;32.72;98353.17;125335;1093;64504;-88
2021/06/20 17:05:20;;;;;;;2.87;2.77;;;;;;;33.06;32.51;98354.08;125355;1092;64373;-88
2021/06/20 17:07:48;;;;;;;3.97;3.03;;;;;;;32.96;32.52;98354.79;125355;1093;64287;-88
2021/06/20 17:10:16;;;;;;;3.60;3.27;;;;;;;32.98;32.68;98347.08;125313;1093;64319;-87
2021/06/20 17:12:45;;;;;;;5.10;3.10;;;;;;;32.72;32.80;98356.25;125306;1091;64290;-86
2021/06/20 17:15:14;;;;;;;3.28;3.08;;;;;;;32.63;33.18;98355.08;125329;1093;64268;-87
2021/06/20 17:17:42;;;;;;;3.97;3.30;;;;;;;32.61;32.97;98354.50;125265;1093;64313;-87
2021/06/20 17:20:11;;;;;;;3.40;3.20;;;;;;;32.49;33.37;98346.38;125345;1093;64220;-87
2021/06/20 17:22:39;;;;;;;3.70;3.40;;;;;;;32.51;33.62;98352.47;125221;1092;64229;-86
2021/06/20 17:25:07;;;;;;;3.40;3.10;;;;;;;32.45;33.65;98357.08;125040;1092;64356;-87
2021/06/20 17:27:35;;;;;;;3.10;2.90;;;;;;;32.46;33.87;98346.87;125096;1093;64404;-87
2021/06/20 17:30:03;;;;;;;3.40;3.10;;;;;;;32.51;34.01;98352.47;125107;1093;64313;-87
2021/06/20 17:32:31;;;;;;;3.10;2.90;;;;;;;32.47;33.97;98346.65;125133;1093;64269;-85
2021/06/20 17:34:58;;;;;;;3.70;3.40;;;;;;;32.44;34.15;98344.39;124899;1093;64233;-87
2021/06/20 17:37:26;;;;;;;3.40;3.20;;;;;;;32.43;34.43;98347.39;125016;1093;64345;-88
2021/06/20 17:39:53;;;;;;;4.57;3.30;;;;;;;32.47;34.77;98346.65;125178;1093;64294;-87
2021/06/20 17:42:20;;;;;;;3.70;3.40;;;;;;;32.50;34.61;98345.30;125241;1093;64296;-86
2021/06/20 17:44:47;;;;;;;4.27;3.60;;;;;;;32.52;34.78;98351.39;125215;1093;64354;-88
2021/06/20 17:47:15;;;;;;;4.70;3.53;;;;;;;32.49;34.97;98349.98;125035;1093;64274;-87
2021/06/20 17:49:42;;;;;;;3.60;3.30;;;;;;;32.47;35.16;98351.31;125117;1093;64211;-86
2021/06/20 17:52:10;;;;;;;4.93;3.50;;;;;;;32.29;35.19;98344.23;125141;1093;64264;-86
2021/06/20 17:54:37;;;;;;;3.53;3.33;;;;;;;32.15;35.19;98343.81;125167;1092;64301;-86
2021/06/20 17:57:05;;;;;;;3.87;3.50;;;;;;;31.75;35.77;98339.42;125143;1092;64265;-86
2021/06/20 17:59:32;;;;;;;4.37;3.50;;;;;;;31.24;36.11;98341.46;125088;1093;64271;-86
2021/06/20 18:02:00;;;;;;;3.53;3.33;;;;;;;30.87;36.62;98344.74;125085;1093;64268;-87
2021/06/20 18:04:27;;;;;;;6.15;4.10;;;;;;;30.46;37.47;98348.67;125072;1092;64283;-86
2021/06/20 18:06:55;;;;;;;4.33;2.80;;;;;;;30.05;37.44;98347.88;125032;1093;64271;-87
2021/06/20 18:09:22;;;;;;;2.93;2.73;;;;;;;29.75;38.03;98348.91;125111;1093;64271;-86
2021/06/20 18:11:50;;;;;;;2.97;2.73;;;;;;;29.48;38.74;98348.58;125084;1093;64255;-86
2021/06/20 18:14:17;;;;;;;3.60;3.40;;;;;;;29.23;39.27;98351.59;125040;1093;64382;-87
2021/06/20 18:16:44;;;;;;;11.40;3.50;;;;;;;29.00;39.79;98344.98;125116;1093;64367;-87
2021/06/20 18:19:12;;;;;;;3.77;3.40;;;;;;;28.82;40.04;98342.34;125083;1093;64226;-86
2021/06/20 18:21:40;;;;;;;3.90;3.50;;;;;;;28.61;40.59;98336.34;125156;1093;64213;-86
2021/06/20 18:24:11;;;;;;;3.65;3.15;;;;;;;28.44;40.75;98343.59;125084;1093;64235;-86
2021/06/20 18:26:40;;;;;;;4.00;3.53;;;;;;;28.26;41.37;98351.84;125138;1093;64309;-87
2021/06/20 18:29:08;;;;;;;3.73;3.43;;;;;;;28.12;41.89;98342.95;125038;1092;64424;-86
2021/06/20 18:31:36;;;;;;;4.63;3.70;;;;;;;27.96;41.95;98347.16;125077;1092;64364;-86
2021/06/20 18:34:04;;;;;;;4.53;3.67;;;;;;;27.79;42.94;98347.77;125168;1093;64334;-87
2021/06/20 18:36:32;;;;;;;4.07;3.57;;;;;;;27.63;42.72;98344.83;125147;1093;64191;-86
2021/06/20 18:38:59;;;;;;;4.60;3.90;;;;;;;27.50;43.15;98351.29;125090;1093;64415;-87
2021/06/20 18:41:27;;;;;;;4.13;3.70;;;;;;;27.36;43.76;98353.34;125190;1092;64309;-86
2021/06/20 18:43:57;;;;;;;6.23;3.80;;;;;;;27.23;44.05;98353.48;125138;1093;64268;-87
2021/06/20 18:46:25;;;;;;;4.20;3.80;;;;;;;27.08;44.39;98359.26;125126;1093;64268;-86
2021/06/20 18:48:53;;;;;;;4.40;4.05;;;;;;;26.91;44.74;98359.83;125153;1092;64270;-87
2021/06/20 18:51:20;;;;;;;4.73;4.30;;;;;;;26.76;45.32;98370.26;125081;1092;64287;-87
2021/06/20 18:53:48;;;;;;;4.60;4.20;;;;;;;26.62;45.57;98374.13;125154;1093;64252;-87
2021/06/20 18:56:19;;;;;;;6.97;4.70;;;;;;;26.49;46.06;98370.42;125173;1093;64242;-87
2021/06/20 18:58:47;;;;;;;6.00;4.00;;;;;;;26.38;46.42;98373.00;125394;1093;64264;-85
2021/06/20 19:01:17;;;;;;;4.97;3.87;;;;;;;26.27;46.47;98371.81;125156;1092;64307;-85
2021/06/20 19:03:46;;;;;;;4.60;4.20;;;;;;;26.20;46.93;98380.06;125187;1093;64257;-87
2021/06/20 19:06:15;;;;;;;5.83;3.53;;;;;;;26.12;47.12;98391.23;125251;1093;64264;-87
2021/06/20 19:08:43;;;;;;;6.18;4.00;;;;;;;26.04;47.27;98384.13;125243;1092;64334;-86
2021/06/20 19:11:12;;;;;;;4.23;3.80;;;;;;;25.97;47.52;98396.14;125364;1092;64249;-85
2021/06/20 19:13:40;;;;;;;5.63;4.40;;;;;;;25.90;47.92;98398.05;125376;1092;64284;-87
2021/06/20 19:16:08;;;;;;;4.00;3.60;;;;;;;25.86;47.66;98396.78;125414;1093;64411;-87
2021/06/20 19:18:36;;;;;;;4.80;4.40;;;;;;;25.82;48.11;98404.55;125184;1093;64312;-86
2021/06/20 19:21:04;;;;;;;4.77;4.27;;;;;;;25.80;48.26;98393.86;125316;1093;64355;-87
2021/06/20 19:23:31;;;;;;;4.13;3.80;;;;;;;25.77;48.38;98402.45;125392;1093;64217;-86
2021/06/20 19:25:59;;;;;;;6.35;4.30;;;;;;;25.73;48.48;98403.95;125311;1092;64257;-88
2021/06/20 19:28:27;;;;;;;4.87;4.47;;;;;;;25.70;48.55;98411.72;125104;1093;64367;-86
2021/06/20 19:30:54;;;;;;;5.87;4.90;;;;;;;25.67;48.70;98410.25;125212;1093;64327;-87
2021/06/20 19:33:22;;;;;;;5.90;5.30;;;;;;;25.62;48.99;98399.17;125192;1093;64188;-86
2021/06/20 19:35:49;;;;;;;5.50;5.00;;;;;;;25.58;49.17;98390.55;125102;1093;64281;-88
2021/06/20 19:38:17;;;;;;;6.20;4.90;;;;;;;25.53;49.34;98397.70;125169;1093;64383;-86
2021/06/20 19:40:45;;;;;;;8.40;5.67;;;;;;;25.48;50.02;98401.06;125125;1093;64342;-86
2021/06/20 19:43:12;;;;;;;5.97;5.40;;;;;;;25.44;49.73;98394.38;125163;1093;64325;-87
2021/06/20 19:45:43;;;;;;;6.93;5.77;;;;;;;25.42;49.99;98403.83;125169;1093;64279;-88
2021/06/20 19:48:12;;;;;;;8.00;6.40;;;;;;;25.33;50.08;98392.28;125177;1093;64296;-86
2021/06/20 19:50:40;;;;;;;8.35;6.75;;;;;;;25.28;50.24;98400.28;125147;1093;64268;-87
2021/06/20 19:53:09;;;;;;;6.77;5.93;;;;;;;25.22;50.15;98391.03;125096;1093;64281;-88
2021/06/20 19:55:37;;;;;;;7.00;6.30;;;;;;;25.16;50.49;98389.16;125160;1093;64438;-87
2021/06/20 19:58:05;;;;;;;7.40;6.67;;;;;;;25.09;51.01;98380.11;125217;1092;64281;-87
2021/06/20 20:00:38;;;;;;;6.10;5.40;;;;;;;25.02;51.31;98376.58;125243;1093;64264;-86
2021/06/20 20:03:06;;;;;;;6.47;5.87;;;;;;;24.98;51.24;98370.69;125199;1093;64201;-86
2021/06/20 20:05:34;;;;;;;7.10;5.40;;;;;;;24.89;51.65;98367.34;125199;1093;64361;-87
2021/06/20 20:08:03;;;;;;;6.00;5.50;;;;;;;24.83;51.80;98367.33;125197;1093;64281;-87
2021/06/20 20:10:36;;;;;;;6.40;5.20;;;;;;;24.76;52.07;98364.62;125237;1093;64316;-87
2021/06/20 20:13:09;;;;;;;5.87;5.27;;;;;;;24.70;52.25;98363.57;125152;1093;64345;-87
2021/06/20 20:15:38;;;;;;;6.53;5.83;;;;;;;24.65;52.22;98367.98;125179;1093;64283;-89
2021/06/20 20:18:05;;;;;;;5.50;5.00;;;;;;;24.58;52.61;98373.41;125155;1093;64347;-87
2021/06/20 20:20:33;;;;;;;5.90;5.30;;;;;;;24.51;52.88;98370.69;125129;1093;64475;-87
2021/06/20 20:23:01;;;;;;;5.23;4.67;;;;;;;24.44;53.13;98368.97;125177;1091;64281;-87
2021/06/20 20:25:29;;;;;;;6.00;5.23;;;;;;;24.39;53.10;98376.91;125185;1093;64280;-86
2021/06/20 20:27:56;;;;;;;5.73;5.20;;;;;;;24.36;53.15;98377.33;125160;1092;64184;-86
2021/06/20 20:30:26;;;;;;;7.33;5.50;;;;;;;24.31;53.78;98378.78;125133;1093;64312;-87
2021/06/20 20:33:01;;;;;;;5.93;5.33;;;;;;;24.28;53.93;98378.36;125095;1093;64303;-87
2021/06/20 20:35:30;;;;;;;7.07;5.57;;;;;;;24.22;54.14;98373.72;125144;1093;64379;-86
2021/06/20 20:37:58;;;;;;;5.30;4.80;;;;;;;24.17;54.83;98376.21;125144;1092;64293;-87
2021/06/20 20:40:27;;;;;;;6.43;5.77;;;;;;;24.12;54.70;98381.43;125185;1093;64291;-88
2021/06/20 20:42:55;;;;;;;7.03;6.10;;;;;;;24.06;54.81;98383.09;125173;1093;64268;-88
2021/06/20 20:45:23;;;;;;;8.07;6.03;;;;;;;24.01;54.85;98388.31;125118;1092;64450;-87
2021/06/20 20:47:51;;;;;;;6.60;6.00;;;;;;;23.98;55.22;98392.27;125078;1093;64265;-88
2021/06/20 20:50:18;;;;;;;6.30;5.80;;;;;;;23.95;55.25;98391.86;124912;1093;64329;-87
2021/06/20 20:52:46;;;;;;;8.93;7.33;;;;;;;23.90;55.33;98395.17;124992;1092;64307;-88
2021/06/20 20:55:18;;;;;;;6.57;6.03;;;;;;;23.84;55.75;98396.83;125079;1093;64309;-87
2021/06/20 20:57:47;;;;;;;7.50;6.80;;;;;;;23.82;55.98;98388.02;125058;1093;64294;-87
2021/06/20 21:00:21;;;;;;;8.93;7.63;;;;;;;23.76;56.14;98398.89;125258;1093;64279;-86
2021/06/20 21:02:49;;;;;;;9.40;7.30;;;;;;;23.69;56.22;98401.53;125262;1092;64264;-87
2021/06/20 21:05:18;;;;;;;8.47;6.03;;;;;;;23.64;56.28;98396.72;125379;1093;64289;-87
2021/06/20 21:07:47;;;;;;;;;;;;;;;23.61;56.83;98383.49;125142;1093;64278;-88
2021/06/20 21:10:16;;;;;;;7.10;5.80;;;;;;;23.58;56.82;98397.50;125119;1093;64436;-86
2021/06/20 21:12:44;;;;;;;7.60;6.67;;;;;;;23.56;56.96;98387.86;125143;1093;64226;-87
2021/06/20 21:15:12;;;;;;;10.30;7.70;;;;;;;23.52;57.08;98387.44;125161;1092;64309;-87
2021/06/20 21:17:40;;;;;;;7.40;6.47;;;;;;;23.49;57.27;98384.29;125219;1093;64281;-86
2021/06/20 21:20:10;;;;;;;6.37;5.80;;;;;;;23.45;57.57;98386.55;125089;1093;64316;-87
2021/06/20 21:22:39;;;;;;;7.30;6.60;;;;;;;23.41;57.53;98383.41;125154;1093;64527;-88
2021/06/20 21:25:08;;;;;;;7.60;7.00;;;;;;;23.37;57.60;98373.12;125137;1092;64273;-86
2021/06/20 21:27:36;;;;;;;7.50;6.87;;;;;;;23.32;57.79;98379.14;125138;1093;64210;-87
2021/06/20 21:30:06;;;;;;;7.37;6.67;;;;;;;23.22;57.94;98379.52;125127;1093;64340;-87
2021/06/20 21:32:35;;;;;;;9.67;7.13;;;;;;;23.15;58.18;98384.06;125201;1093;64419;-87
2021/06/20 21:35:03;;;;;;;7.55;6.85;;;;;;;23.08;58.44;98383.17;125132;1093;64290;-87
2021/06/20 21:37:31;;;;;;;10.43;6.47;;;;;;;23.00;58.45;98378.72;125169;1093;64264;-86
2021/06/20 21:40:00;;;;;;;8.37;7.10;;;;;;;22.89;58.76;98378.40;125136;1093;64244;-87
2021/06/20 21:42:28;;;;;;;7.13;6.43;;;;;;;22.78;59.27;98386.05;125165;1093;64210;-85
2021/06/20 21:44:55;;;;;;;7.30;6.17;;;;;;;22.73;59.11;98380.35;125115;1093;64284;-86
2021/06/20 21:47:23;;;;;;;7.05;6.40;;;;;;;22.68;59.50;98387.41;125149;1093;64241;-87
2021/06/20 21:49:50;;;;;;;7.00;6.30;;;;;;;22.65;59.63;98387.81;125131;1093;64732;-87
2021/06/20 21:52:17;;;;;;;8.37;7.43;;;;;;;22.63;59.84;98389.88;125177;1093;64361;-87
2021/06/20 21:54:45;;;;;;;8.27;7.40;;;;;;;22.63;59.99;98390.70;125215;1092;64255;-87
2021/06/20 21:57:12;;;;;;;9.37;7.23;;;;;;;22.64;60.09;98386.94;125203;1093;64527;-87
2021/06/20 21:59:39;;;;;;;7.50;6.83;;;;;;;22.64;60.59;98386.94;125137;1093;64351;-87
2021/06/20 22:02:07;;;;;;;7.33;6.67;;;;;;;22.65;60.47;98388.64;125195;1093;64150;-87
2021/06/20 22:04:35;;;;;;;7.37;6.77;;;;;;;22.66;60.56;98384.05;125188;1093;64193;-88
2021/06/20 22:07:02;;;;;;;9.37;6.70;;;;;;;22.66;60.59;98382.16;125168;1093;64290;-88
2021/06/20 22:09:30;;;;;;;8.93;6.77;;;;;;;22.66;60.91;98367.75;125155;1093;64296;-88
2021/06/20 22:11:58;;;;;;;7.45;6.85;;;;;;;22.64;61.09;98367.09;125258;1093;64411;-86
2021/06/20 22:14:25;;;;;;;7.10;6.60;;;;;;;22.62;61.26;98363.73;125159;1093;64322;-87
2021/06/20 22:16:52;;;;;;;7.50;6.83;;;;;;;22.60;61.47;98368.54;125204;1093;64241;-86
2021/06/20 22:19:19;;;;;;;7.53;6.83;;;;;;;22.54;61.42;98362.84;125036;1092;64379;-86
2021/06/20 22:21:47;;;;;;;7.40;6.80;;;;;;;22.49;61.76;98359.05;125121;1093;64344;-85
2021/06/20 22:24:14;;;;;;;7.33;6.57;;;;;;;22.44;61.81;98359.62;125065;1093;64313;-88
2021/06/20 22:26:42;;;;;;;6.70;6.10;;;;;;;22.41;61.68;98361.86;125160;1093;64184;-87
2021/06/20 22:29:11;;;;;;;7.23;6.50;;;;;;;22.38;62.06;98354.11;125130;1093;64268;-88
2021/06/20 22:31:39;;;;;;;8.77;7.90;;;;;;;22.35;62.11;98364.34;125143;1093;64194;-89
2021/06/20 22:34:07;;;;;;;8.20;7.40;;;;;;;22.33;62.22;98365.57;125178;1093;64331;-86
2021/06/20 22:36:34;;;;;;;7.53;6.93;;;;;;;22.29;62.34;98362.38;125141;1093;64287;-86
2021/06/20 22:39:04;;;;;;;8.17;7.50;;;;;;;22.25;62.54;98363.82;125142;1093;64731;-87
2021/06/20 22:41:31;;;;;;;8.45;7.70;;;;;;;22.22;62.77;98350.64;125157;1093;64225;-85
2021/06/20 22:44:00;;;;;;;8.63;7.50;;;;;;;22.17;63.17;98353.05;125055;1093;64287;-87
2021/06/20 22:46:28;;;;;;;8.03;7.23;;;;;;;22.16;63.33;98356.78;125129;1093;64268;-87
2021/06/20 22:48:56;;;;;;;7.97;7.17;;;;;;;22.14;63.28;98356.13;125056;1093;64280;-86
2021/06/20 22:51:24;;;;;;;7.80;7.10;;;;;;;22.12;63.72;98360.94;125126;1093;64332;-86
2021/06/20 22:53:51;;;;;;;8.17;7.43;;;;;;;22.08;63.43;98349.59;125088;1093;64226;-87
2021/06/20 22:56:19;;;;;;;8.20;7.60;;;;;;;22.09;63.56;98355.86;125002;1093;64284;-87
2021/06/20 22:58:46;;;;;;;9.93;8.50;;;;;;;22.07;63.83;98355.23;125115;1093;64524;-87
2021/06/20 23:01:15;;;;;;;8.90;7.77;;;;;;;22.04;63.99;98342.89;125077;1093;64268;-87
2021/06/20 23:03:42;;;;;;;9.50;8.60;;;;;;;22.00;64.36;98341.58;125093;1093;64274;-87
2021/06/20 23:06:10;;;;;;;8.70;7.93;;;;;;;21.96;64.27;98334.01;125099;1092;64376;-89
2021/06/20 23:08:37;;;;;;;7.80;7.10;;;;;;;21.93;64.58;98332.52;125101;1093;64264;-87
2021/06/20 23:11:05;;;;;;;9.00;8.10;;;;;;;21.91;64.75;98327.30;125095;1093;64421;-86
2021/06/20 23:13:32;;;;;;;9.30;8.40;;;;;;;21.91;64.66;98326.47;125149;1092;64399;-87
2021/06/20 23:15:59;;;;;;;9.27;8.47;;;;;;;21.88;64.69;98332.25;125130;1093;64338;-87
2021/06/20 23:18:27;;;;;;;9.33;8.50;;;;;;;21.85;65.40;98329.92;125149;1093;64753;-86
2021/06/20 23:20:54;;;;;;;9.37;8.53;;;;;;;21.79;65.37;98325.28;125203;1093;64293;-86
2021/06/20 23:23:24;;;;;;;11.67;8.80;;;;;;;21.74;65.22;98327.72;125105;1093;64344;-87
2021/06/20 23:25:51;;;;;;;9.05;8.18;;;;;;;21.67;65.65;98320.35;125173;1093;64268;-87
2021/06/20 23:28:19;;;;;;;9.03;7.83;;;;;;;21.58;65.79;98324.19;125129;1093;64357;-87
2021/06/20 23:30:49;;;;;;;8.55;7.75;;;;;;;21.54;66.36;98322.91;125171;1091;64364;-87
2021/06/20 23:33:17;;;;;;;10.63;8.60;;;;;;;21.51;66.73;98323.25;125196;1093;64290;-88
2021/06/20 23:35:46;;;;;;;10.23;9.07;;;;;;;21.48;66.76;98324.50;125131;1092;64226;-87
2021/06/20 23:38:17;;;;;;;9.77;8.97;;;;;;;21.44;66.74;98316.92;125107;1093;64268;-87
2021/06/20 23:40:44;;;;;;;9.83;9.03;;;;;;;21.40;66.86;98302.89;125105;1092;64290;-86
2021/06/20 23:43:12;;;;;;;9.95;9.15;;;;;;;21.39;67.89;98308.52;125024;1093;64274;-85
2021/06/20 23:45:39;;;;;;;11.37;8.70;;;;;;;21.38;67.53;98302.27;125118;1092;64213;-86
2021/06/20 23:48:07;;;;;;;9.23;8.43;;;;;;;21.37;67.79;98305.12;125065;1092;64401;-87
2021/06/20 23:50:34;;;;;;;8.87;8.00;;;;;;;21.38;67.64;98314.95;124994;1093;64507;-86
2021/06/20 23:53:01;;;;;;;10.70;8.03;;;;;;;21.37;67.76;98308.66;125110;1093;64296;-86
2021/06/20 23:55:29;;;;;;;11.87;9.30;;;;;;;21.36;68.17;98301.57;125103;1093;64333;-87
2021/06/20 23:57:56;;;;;;;10.10;9.07;;;;;;;21.38;68.07;98302.27;125139;1093;64284;-87
